sensor_id;sensor_type;location;lat;lon;timestamp;pressure;altitude;pressure_sealevel;temperature;humidity
550;BME280;20066;48.764;9.176;2023-04-22T00:02:22;97540.88;;;15.66;54.79
550;BME280;20066;48.764;9.176;2023-04-22T00:04:50;97541.66;;;16.17;52.92
550;BME280;20066;48.764;9.176;2023-04-22T00:07:18;97541.00;;;16.13;53.17
550;BME280;20066;48.764;9.176;2023-04-22T00:09:47;97535.47;;;16.16;52.92
550;BME280;20066;48.764;9.176;2023-04-22T00:12:15;97549.69;;;16.21;52.97
550;BME280;20066;48.764;9.176;2023-04-22T00:14:43;97543.81;;;16.09;52.85
550;BME280;20066;48.764;9.176;2023-04-22T00:17:11;97532.66;;;16.20;53.01
550;BME280;20066;48.764;9.176;2023-04-22T00:19:40;97530.41;;;16.40;52.26
550;BME280;20066;48.764;9.176;2023-04-22T00:22:09;97533.06;;;16.18;53.26
550;BME280;20066;48.764;9.176;2023-04-22T00:24:37;97535.84;;;16.40;52.05
550;BME280;20066;48.764;9.176;2023-04-22T00:27:06;97542.13;;;16.50;51.70
550;BME280;20066;48.764;9.176;2023-04-22T00:29:33;97538.03;;;16.45;51.85
550;BME280;20066;48.764;9.176;2023-04-22T00:32:02;97536.59;;;16.53;51.61
550;BME280;20066;48.764;9.176;2023-04-22T00:34:29;97535.56;;;16.26;52.23
550;BME280;20066;48.764;9.176;2023-04-22T00:36:57;97532.31;;;16.05;53.32
550;BME280;20066;48.764;9.176;2023-04-22T00:39:25;97534.38;;;16.27;52.62
550;BME280;20066;48.764;9.176;2023-04-22T00:41:54;97529.13;;;16.32;52.25
550;BME280;20066;48.764;9.176;2023-04-22T00:44:23;97529.81;;;16.24;52.40
550;BME280;20066;48.764;9.176;2023-04-22T00:46:51;97526.44;;;16.32;52.27
550;BME280;20066;48.764;9.176;2023-04-22T00:49:19;97530.16;;;16.13;52.93
550;BME280;20066;48.764;9.176;2023-04-22T00:51:47;97527.53;;;15.97;53.09
550;BME280;20066;48.764;9.176;2023-04-22T00:54:16;97531.97;;;16.03;53.51
550;BME280;20066;48.764;9.176;2023-04-22T00:56:44;97536.25;;;15.92;53.95
550;BME280;20066;48.764;9.176;2023-04-22T00:59:12;97536.31;;;16.01;53.10
550;BME280;20066;48.764;9.176;2023-04-22T01:01:41;97534.47;;;16.10;53.46
550;BME280;20066;48.764;9.176;2023-04-22T01:04:09;97540.31;;;16.09;53.48
550;BME280;20066;48.764;9.176;2023-04-22T01:06:38;97533.50;;;15.66;54.61
550;BME280;20066;48.764;9.176;2023-04-22T01:09:06;97529.28;;;15.65;54.73
550;BME280;20066;48.764;9.176;2023-04-22T01:11:34;97536.13;;;15.83;54.22
550;BME280;20066;48.764;9.176;2023-04-22T01:14:02;97526.69;;;15.87;54.10
550;BME280;20066;48.764;9.176;2023-04-22T01:16:30;97531.44;;;15.58;54.09
550;BME280;20066;48.764;9.176;2023-04-22T01:19:02;97531.13;;;15.81;53.56
550;BME280;20066;48.764;9.176;2023-04-22T01:21:31;97531.09;;;15.56;53.90
550;BME280;20066;48.764;9.176;2023-04-22T01:24:01;97531.47;;;15.83;53.54
550;BME280;20066;48.764;9.176;2023-04-22T01:26:29;97527.22;;;15.95;53.05
550;BME280;20066;48.764;9.176;2023-04-22T01:29:00;97531.13;;;15.94;53.18
550;BME280;20066;48.764;9.176;2023-04-22T01:31:28;97531.22;;;16.03;52.80
550;BME280;20066;48.764;9.176;2023-04-22T01:33:56;97539.38;;;16.15;52.24
550;BME280;20066;48.764;9.176;2023-04-22T01:36:24;97533.31;;;16.11;52.69
550;BME280;20066;48.764;9.176;2023-04-22T01:38:52;97529.28;;;15.53;55.54
550;BME280;20066;48.764;9.176;2023-04-22T01:41:22;97528.75;;;15.83;54.04
550;BME280;20066;48.764;9.176;2023-04-22T01:43:51;97533.72;;;15.85;54.10
550;BME280;20066;48.764;9.176;2023-04-22T01:46:19;97530.25;;;15.97;54.10
550;BME280;20066;48.764;9.176;2023-04-22T01:48:47;97534.56;;;15.56;55.34
550;BME280;20066;48.764;9.176;2023-04-22T01:51:17;97541.22;;;15.80;54.46
550;BME280;20066;48.764;9.176;2023-04-22T01:53:47;97535.47;;;15.66;54.99
550;BME280;20066;48.764;9.176;2023-04-22T01:56:15;97531.88;;;15.81;53.81
550;BME280;20066;48.764;9.176;2023-04-22T01:58:44;97529.28;;;15.78;54.10
550;BME280;20066;48.764;9.176;2023-04-22T02:01:12;97526.44;;;15.69;54.38
550;BME280;20066;48.764;9.176;2023-04-22T02:03:40;97539.81;;;15.76;54.57
550;BME280;20066;48.764;9.176;2023-04-22T02:06:08;97545.16;;;15.25;57.10
550;BME280;20066;48.764;9.176;2023-04-22T02:08:36;97539.84;;;15.22;57.35
550;BME280;20066;48.764;9.176;2023-04-22T02:11:04;97540.34;;;15.17;58.18
550;BME280;20066;48.764;9.176;2023-04-22T02:13:35;97538.69;;;15.48;56.58
550;BME280;20066;48.764;9.176;2023-04-22T02:16:05;97541.06;;;15.46;56.27
550;BME280;20066;48.764;9.176;2023-04-22T02:18:33;97540.88;;;15.53;56.06
550;BME280;20066;48.764;9.176;2023-04-22T02:21:01;97544.16;;;15.61;55.67
550;BME280;20066;48.764;9.176;2023-04-22T02:23:29;97539.56;;;15.58;55.67
550;BME280;20066;48.764;9.176;2023-04-22T02:25:57;97544.19;;;15.03;57.71
550;BME280;20066;48.764;9.176;2023-04-22T02:28:24;97552.75;;;15.30;56.91
550;BME280;20066;48.764;9.176;2023-04-22T02:30:52;97550.53;;;15.13;56.75
550;BME280;20066;48.764;9.176;2023-04-22T02:33:22;97553.88;;;15.46;55.56
550;BME280;20066;48.764;9.176;2023-04-22T02:35:51;97554.44;;;15.66;54.44
550;BME280;20066;48.764;9.176;2023-04-22T02:38:18;97549.66;;;15.70;55.09
550;BME280;20066;48.764;9.176;2023-04-22T02:40:46;97561.91;;;15.62;56.66
550;BME280;20066;48.764;9.176;2023-04-22T02:43:14;97563.75;;;15.52;56.18
550;BME280;20066;48.764;9.176;2023-04-22T02:45:42;97565.91;;;15.45;56.20
550;BME280;20066;48.764;9.176;2023-04-22T02:48:09;97560.25;;;14.81;58.42
550;BME280;20066;48.764;9.176;2023-04-22T02:50:38;97563.91;;;14.75;59.47
550;BME280;20066;48.764;9.176;2023-04-22T02:53:07;97563.00;;;14.94;59.11
550;BME280;20066;48.764;9.176;2023-04-22T02:55:34;97569.13;;;15.27;56.81
550;BME280;20066;48.764;9.176;2023-04-22T02:58:02;97563.16;;;15.32;56.41
550;BME280;20066;48.764;9.176;2023-04-22T03:00:30;97568.72;;;15.41;55.67
550;BME280;20066;48.764;9.176;2023-04-22T03:02:58;97562.66;;;15.50;55.28
550;BME280;20066;48.764;9.176;2023-04-22T03:05:26;97552.16;;;15.52;55.11
550;BME280;20066;48.764;9.176;2023-04-22T03:07:55;97552.03;;;15.55;54.75
550;BME280;20066;48.764;9.176;2023-04-22T03:10:23;97548.41;;;15.33;55.65
550;BME280;20066;48.764;9.176;2023-04-22T03:12:50;97549.94;;;15.21;55.89
550;BME280;20066;48.764;9.176;2023-04-22T03:15:18;97543.34;;;15.06;56.25
550;BME280;20066;48.764;9.176;2023-04-22T03:17:47;97552.66;;;15.05;56.17
550;BME280;20066;48.764;9.176;2023-04-22T03:20:15;97556.59;;;14.88;56.79
550;BME280;20066;48.764;9.176;2023-04-22T03:22:43;97555.06;;;14.87;56.71
550;BME280;20066;48.764;9.176;2023-04-22T03:25:12;97564.09;;;14.96;56.57
550;BME280;20066;48.764;9.176;2023-04-22T03:27:40;97561.81;;;14.95;56.70
550;BME280;20066;48.764;9.176;2023-04-22T03:30:08;97551.06;;;14.62;58.40
550;BME280;20066;48.764;9.176;2023-04-22T03:32:36;97556.94;;;14.90;57.19
550;BME280;20066;48.764;9.176;2023-04-22T03:35:04;97556.13;;;15.05;56.53
550;BME280;20066;48.764;9.176;2023-04-22T03:37:32;97552.50;;;15.12;56.19
550;BME280;20066;48.764;9.176;2023-04-22T03:40:00;97552.31;;;15.03;56.46
550;BME280;20066;48.764;9.176;2023-04-22T03:42:30;97559.66;;;14.90;56.72
550;BME280;20066;48.764;9.176;2023-04-22T03:44:58;97563.41;;;14.63;56.74
550;BME280;20066;48.764;9.176;2023-04-22T03:47:26;97572.81;;;14.59;57.42
550;BME280;20066;48.764;9.176;2023-04-22T03:49:54;97571.88;;;14.17;59.14
550;BME280;20066;48.764;9.176;2023-04-22T03:52:22;97571.16;;;13.80;60.64
550;BME280;20066;48.764;9.176;2023-04-22T03:54:49;97572.59;;;14.01;61.38
550;BME280;20066;48.764;9.176;2023-04-22T03:57:17;97564.72;;;14.43;58.76
550;BME280;20066;48.764;9.176;2023-04-22T03:59:46;97571.06;;;14.52;59.13
550;BME280;20066;48.764;9.176;2023-04-22T04:02:14;97575.69;;;14.68;58.04
550;BME280;20066;48.764;9.176;2023-04-22T04:04:42;97572.22;;;14.51;59.16
550;BME280;20066;48.764;9.176;2023-04-22T04:07:10;97580.84;;;13.78;61.11
550;BME280;20066;48.764;9.176;2023-04-22T04:09:38;97578.47;;;13.64;62.36
550;BME280;20066;48.764;9.176;2023-04-22T04:12:06;97570.66;;;13.49;63.97
550;BME280;20066;48.764;9.176;2023-04-22T04:14:34;97571.31;;;13.73;63.55
550;BME280;20066;48.764;9.176;2023-04-22T04:17:03;97565.25;;;14.02;62.71
550;BME280;20066;48.764;9.176;2023-04-22T04:19:35;97564.28;;;14.28;60.90
550;BME280;20066;48.764;9.176;2023-04-22T04:22:03;97567.97;;;14.02;61.67
550;BME280;20066;48.764;9.176;2023-04-22T04:24:32;97558.38;;;13.65;62.88
550;BME280;20066;48.764;9.176;2023-04-22T04:27:02;97557.16;;;13.10;65.09
550;BME280;20066;48.764;9.176;2023-04-22T04:29:30;97555.91;;;13.34;64.75
550;BME280;20066;48.764;9.176;2023-04-22T04:31:57;97569.88;;;13.49;64.04
550;BME280;20066;48.764;9.176;2023-04-22T04:34:26;97565.47;;;14.11;62.00
550;BME280;20066;48.764;9.176;2023-04-22T04:36:54;97565.69;;;14.00;61.47
550;BME280;20066;48.764;9.176;2023-04-22T04:39:25;97558.63;;;14.06;61.19
550;BME280;20066;48.764;9.176;2023-04-22T04:41:54;97550.44;;;14.26;60.39
550;BME280;20066;48.764;9.176;2023-04-22T04:44:24;97549.31;;;14.40;60.32
550;BME280;20066;48.764;9.176;2023-04-22T04:46:52;97563.38;;;13.99;61.84
550;BME280;20066;48.764;9.176;2023-04-22T04:49:21;97553.53;;;14.08;61.04
550;BME280;20066;48.764;9.176;2023-04-22T04:51:51;97548.88;;;14.57;59.80
550;BME280;20066;48.764;9.176;2023-04-22T04:54:18;97548.22;;;14.37;60.14
550;BME280;20066;48.764;9.176;2023-04-22T04:56:46;97546.41;;;14.63;59.00
550;BME280;20066;48.764;9.176;2023-04-22T04:59:14;97549.22;;;14.59;58.61
550;BME280;20066;48.764;9.176;2023-04-22T05:01:41;97546.06;;;14.61;58.74
550;BME280;20066;48.764;9.176;2023-04-22T05:04:09;97549.13;;;13.62;62.58
550;BME280;20066;48.764;9.176;2023-04-22T05:06:38;97546.94;;;14.42;59.87
550;BME280;20066;48.764;9.176;2023-04-22T05:09:09;97545.53;;;14.21;60.24
550;BME280;20066;48.764;9.176;2023-04-22T05:11:37;97540.84;;;14.38;59.83
550;BME280;20066;48.764;9.176;2023-04-22T05:14:05;97545.94;;;14.52;59.58
550;BME280;20066;48.764;9.176;2023-04-22T05:16:33;97557.19;;;14.50;58.38
550;BME280;20066;48.764;9.176;2023-04-22T05:19:01;97545.84;;;14.39;58.10
550;BME280;20066;48.764;9.176;2023-04-22T05:21:28;97551.38;;;13.83;59.92
550;BME280;20066;48.764;9.176;2023-04-22T05:23:56;97550.56;;;14.03;59.89
550;BME280;20066;48.764;9.176;2023-04-22T05:26:26;97547.53;;;13.29;61.70
550;BME280;20066;48.764;9.176;2023-04-22T05:28:54;97550.50;;;13.14;63.32
550;BME280;20066;48.764;9.176;2023-04-22T05:31:21;97554.06;;;14.19;59.32
550;BME280;20066;48.764;9.176;2023-04-22T05:33:49;97555.09;;;13.18;62.01
550;BME280;20066;48.764;9.176;2023-04-22T05:36:20;97561.00;;;13.84;61.09
550;BME280;20066;48.764;9.176;2023-04-22T05:38:59;97567.81;;;14.57;58.31
550;BME280;20066;48.764;9.176;2023-04-22T05:41:41;97562.78;;;14.88;57.53
550;BME280;20066;48.764;9.176;2023-04-22T05:44:19;97567.25;;;14.95;57.35
550;BME280;20066;48.764;9.176;2023-04-22T05:46:59;97563.44;;;14.92;57.16
550;BME280;20066;48.764;9.176;2023-04-22T05:49:36;97567.91;;;14.99;57.48
550;BME280;20066;48.764;9.176;2023-04-22T05:52:15;97560.50;;;15.16;56.01
550;BME280;20066;48.764;9.176;2023-04-22T05:57:39;97556.13;;;15.34;55.30
550;BME280;20066;48.764;9.176;2023-04-22T06:00:09;97557.66;;;15.48;54.34
550;BME280;20066;48.764;9.176;2023-04-22T06:05:34;97564.75;;;15.71;53.81
550;BME280;20066;48.764;9.176;2023-04-22T06:08:06;97563.00;;;15.77;53.14
550;BME280;20066;48.764;9.176;2023-04-22T06:10:41;97569.53;;;15.79;53.27
550;BME280;20066;48.764;9.176;2023-04-22T06:13:11;97565.41;;;16.00;52.47
550;BME280;20066;48.764;9.176;2023-04-22T06:15:48;97569.44;;;16.21;51.62
550;BME280;20066;48.764;9.176;2023-04-22T06:18:17;97570.09;;;16.38;51.84
550;BME280;20066;48.764;9.176;2023-04-22T06:20:50;97567.38;;;16.72;51.13
550;BME280;20066;48.764;9.176;2023-04-22T06:23:26;97571.91;;;16.53;51.04
550;BME280;20066;48.764;9.176;2023-04-22T06:26:02;97568.50;;;16.96;50.09
550;BME280;20066;48.764;9.176;2023-04-22T06:28:35;97571.63;;;17.08;49.96
550;BME280;20066;48.764;9.176;2023-04-22T06:31:04;97573.53;;;17.20;49.28
550;BME280;20066;48.764;9.176;2023-04-22T06:33:38;97571.44;;;17.24;48.79
550;BME280;20066;48.764;9.176;2023-04-22T06:36:42;97575.97;;;17.05;49.93
550;BME280;20066;48.764;9.176;2023-04-22T06:39:19;97572.72;;;16.98;50.28
550;BME280;20066;48.764;9.176;2023-04-22T06:41:51;97569.50;;;17.55;49.52
550;BME280;20066;48.764;9.176;2023-04-22T06:44:21;97576.09;;;17.67;48.50
550;BME280;20066;48.764;9.176;2023-04-22T06:46:53;97574.16;;;17.46;49.42
550;BME280;20066;48.764;9.176;2023-04-22T06:49:25;97574.44;;;17.48;49.01
550;BME280;20066;48.764;9.176;2023-04-22T06:51:56;97581.09;;;16.56;51.97
550;BME280;20066;48.764;9.176;2023-04-22T06:54:25;97568.66;;;17.15;51.08
550;BME280;20066;48.764;9.176;2023-04-22T06:57:03;97581.88;;;18.00;49.01
550;BME280;20066;48.764;9.176;2023-04-22T06:59:46;97578.41;;;17.78;49.50
550;BME280;20066;48.764;9.176;2023-04-22T07:02:17;97580.59;;;16.23;52.41
550;BME280;20066;48.764;9.176;2023-04-22T07:04:45;97583.09;;;16.43;52.90
550;BME280;20066;48.764;9.176;2023-04-22T07:07:18;97576.75;;;17.27;51.29
550;BME280;20066;48.764;9.176;2023-04-22T07:10:16;97581.44;;;17.80;50.09
550;BME280;20066;48.764;9.176;2023-04-22T07:12:44;97577.47;;;18.52;48.73
550;BME280;20066;48.764;9.176;2023-04-22T07:15:14;97584.22;;;19.05;47.61
550;BME280;20066;48.764;9.176;2023-04-22T07:17:43;97576.94;;;19.02;48.01
550;BME280;20066;48.764;9.176;2023-04-22T07:20:10;97576.16;;;19.11;47.04
550;BME280;20066;48.764;9.176;2023-04-22T07:22:38;97570.13;;;18.21;49.58
550;BME280;20066;48.764;9.176;2023-04-22T07:25:09;97558.91;;;17.48;50.16
550;BME280;20066;48.764;9.176;2023-04-22T07:27:40;97564.19;;;18.04;48.73
550;BME280;20066;48.764;9.176;2023-04-22T07:30:09;97562.09;;;18.08;48.75
550;BME280;20066;48.764;9.176;2023-04-22T07:32:38;97557.97;;;18.80;46.80
550;BME280;20066;48.764;9.176;2023-04-22T07:35:06;97555.09;;;19.30;45.96
550;BME280;20066;48.764;9.176;2023-04-22T07:37:34;97549.34;;;19.88;44.50
550;BME280;20066;48.764;9.176;2023-04-22T07:40:02;97547.47;;;20.60;42.52
550;BME280;20066;48.764;9.176;2023-04-22T07:42:31;97547.28;;;20.87;42.35
550;BME280;20066;48.764;9.176;2023-04-22T07:45:00;97548.84;;;21.18;42.49
550;BME280;20066;48.764;9.176;2023-04-22T07:47:28;97550.66;;;21.79;41.26
550;BME280;20066;48.764;9.176;2023-04-22T07:49:55;97560.97;;;22.19;40.19
550;BME280;20066;48.764;9.176;2023-04-22T07:52:23;97560.34;;;21.22;40.70
550;BME280;20066;48.764;9.176;2023-04-22T07:54:51;97568.19;;;20.43;42.54
550;BME280;20066;48.764;9.176;2023-04-22T07:57:19;97571.44;;;18.75;46.72
550;BME280;20066;48.764;9.176;2023-04-22T07:59:48;97580.56;;;18.90;46.84
550;BME280;20066;48.764;9.176;2023-04-22T08:02:17;97579.16;;;18.00;48.63
550;BME280;20066;48.764;9.176;2023-04-22T08:04:45;97581.16;;;17.56;50.07
550;BME280;20066;48.764;9.176;2023-04-22T08:09:54;97575.34;;;18.56;48.11
550;BME280;20066;48.764;9.176;2023-04-22T08:12:39;97582.84;;;19.01;46.83
550;BME280;20066;48.764;9.176;2023-04-22T08:15:12;97580.03;;;18.46;47.81
550;BME280;20066;48.764;9.176;2023-04-22T08:17:48;97579.59;;;18.57;47.94
550;BME280;20066;48.764;9.176;2023-04-22T08:23:00;97568.75;;;19.30;45.18
550;BME280;20066;48.764;9.176;2023-04-22T08:25:29;97571.16;;;19.97;44.75
550;BME280;20066;48.764;9.176;2023-04-22T08:27:57;97567.91;;;19.66;44.40
550;BME280;20066;48.764;9.176;2023-04-22T08:30:25;97572.22;;;20.80;41.55
550;BME280;20066;48.764;9.176;2023-04-22T08:32:54;97579.75;;;23.02;38.15
550;BME280;20066;48.764;9.176;2023-04-22T08:35:22;97571.94;;;24.83;34.75
550;BME280;20066;48.764;9.176;2023-04-22T08:37:50;97569.81;;;22.84;37.18
550;BME280;20066;48.764;9.176;2023-04-22T08:40:18;97572.19;;;24.80;35.07
550;BME280;20066;48.764;9.176;2023-04-22T08:42:45;97571.06;;;26.48;31.08
550;BME280;20066;48.764;9.176;2023-04-22T08:45:14;97576.75;;;26.83;31.12
550;BME280;20066;48.764;9.176;2023-04-22T08:47:46;97572.28;;;27.27;28.70
550;BME280;20066;48.764;9.176;2023-04-22T08:50:19;97579.09;;;27.20;29.38
550;BME280;20066;48.764;9.176;2023-04-22T08:52:47;97578.34;;;26.51;30.74
550;BME280;20066;48.764;9.176;2023-04-22T08:55:16;97572.94;;;26.98;29.00
550;BME280;20066;48.764;9.176;2023-04-22T08:57:46;97572.03;;;27.25;30.03
550;BME280;20066;48.764;9.176;2023-04-22T09:00:16;97572.53;;;29.99;25.78
550;BME280;20066;48.764;9.176;2023-04-22T09:02:46;97571.25;;;31.31;24.11
550;BME280;20066;48.764;9.176;2023-04-22T09:05:18;97570.88;;;32.10;22.94
550;BME280;20066;48.764;9.176;2023-04-22T09:07:48;97560.22;;;31.81;22.01
550;BME280;20066;48.764;9.176;2023-04-22T09:10:16;97555.13;;;31.17;22.64
550;BME280;20066;48.764;9.176;2023-04-22T09:12:45;97555.78;;;31.64;24.76
550;BME280;20066;48.764;9.176;2023-04-22T09:15:14;97552.38;;;34.65;21.05
550;BME280;20066;48.764;9.176;2023-04-22T09:17:42;97554.25;;;34.63;20.06
550;BME280;20066;48.764;9.176;2023-04-22T09:20:10;97561.69;;;36.05;18.29
550;BME280;20066;48.764;9.176;2023-04-22T09:22:43;97556.88;;;32.88;19.99
550;BME280;20066;48.764;9.176;2023-04-22T09:25:15;97545.28;;;30.69;22.54
550;BME280;20066;48.764;9.176;2023-04-22T09:27:47;97541.50;;;30.27;23.70
550;BME280;20066;48.764;9.176;2023-04-22T09:30:17;97546.34;;;29.94;23.84
550;BME280;20066;48.764;9.176;2023-04-22T09:32:52;97547.53;;;29.85;25.12
550;BME280;20066;48.764;9.176;2023-04-22T09:35:28;97554.56;;;32.15;22.73
550;BME280;20066;48.764;9.176;2023-04-22T09:37:59;97551.53;;;32.62;21.91
550;BME280;20066;48.764;9.176;2023-04-22T09:40:29;97549.22;;;29.89;24.53
550;BME280;20066;48.764;9.176;2023-04-22T09:42:59;97551.59;;;30.69;24.80
550;BME280;20066;48.764;9.176;2023-04-22T09:45:31;97548.13;;;28.53;26.56
550;BME280;20066;48.764;9.176;2023-04-22T09:48:02;97538.47;;;27.81;27.01
550;BME280;20066;48.764;9.176;2023-04-22T09:50:30;97536.16;;;28.82;26.80
550;BME280;20066;48.764;9.176;2023-04-22T09:53:01;97533.75;;;27.40;27.10
550;BME280;20066;48.764;9.176;2023-04-22T09:55:31;97543.69;;;27.90;26.38
550;BME280;20066;48.764;9.176;2023-04-22T09:58:04;97537.25;;;26.36;28.13
550;BME280;20066;48.764;9.176;2023-04-22T10:00:35;97531.63;;;27.16;27.99
550;BME280;20066;48.764;9.176;2023-04-22T10:03:04;97536.06;;;27.36;27.43
550;BME280;20066;48.764;9.176;2023-04-22T10:05:36;97520.72;;;25.08;30.28
550;BME280;20066;48.764;9.176;2023-04-22T10:08:08;97511.84;;;24.71;30.53
550;BME280;20066;48.764;9.176;2023-04-22T10:10:37;97514.53;;;25.41;30.35
550;BME280;20066;48.764;9.176;2023-04-22T10:13:05;97512.00;;;26.10;28.73
550;BME280;20066;48.764;9.176;2023-04-22T10:15:36;97519.84;;;27.87;26.43
550;BME280;20066;48.764;9.176;2023-04-22T10:18:08;97510.88;;;28.72;24.66
550;BME280;20066;48.764;9.176;2023-04-22T10:20:39;97514.03;;;29.83;24.04
550;BME280;20066;48.764;9.176;2023-04-22T10:23:14;97513.50;;;29.21;22.89
550;BME280;20066;48.764;9.176;2023-04-22T10:25:46;97508.94;;;27.94;24.17
550;BME280;20066;48.764;9.176;2023-04-22T10:28:15;97505.34;;;29.10;23.06
550;BME280;20066;48.764;9.176;2023-04-22T10:30:43;97508.22;;;30.40;23.67
550;BME280;20066;48.764;9.176;2023-04-22T10:33:35;97506.91;;;31.97;20.59
550;BME280;20066;48.764;9.176;2023-04-22T10:36:09;97504.34;;;31.03;20.80
550;BME280;20066;48.764;9.176;2023-04-22T10:38:40;97499.22;;;30.60;21.37
550;BME280;20066;48.764;9.176;2023-04-22T10:41:12;97492.16;;;28.60;24.04
550;BME280;20066;48.764;9.176;2023-04-22T10:43:42;97490.66;;;28.59;23.88
550;BME280;20066;48.764;9.176;2023-04-22T10:49:17;97487.06;;;29.20;20.81
550;BME280;20066;48.764;9.176;2023-04-22T10:51:47;97476.41;;;29.56;20.25
550;BME280;20066;48.764;9.176;2023-04-22T10:57:19;97476.44;;;29.05;21.57
550;BME280;20066;48.764;9.176;2023-04-22T10:59:54;97474.59;;;30.30;20.69
550;BME280;20066;48.764;9.176;2023-04-22T11:02:23;97481.59;;;31.05;19.88
550;BME280;20066;48.764;9.176;2023-04-22T11:05:18;97480.81;;;29.65;20.76
550;BME280;20066;48.764;9.176;2023-04-22T11:07:47;97479.34;;;29.13;21.07
550;BME280;20066;48.764;9.176;2023-04-22T11:10:33;97461.97;;;30.03;20.83
550;BME280;20066;48.764;9.176;2023-04-22T11:13:04;97477.56;;;29.93;20.74
550;BME280;20066;48.764;9.176;2023-04-22T11:15:34;97478.75;;;29.20;21.27
550;BME280;20066;48.764;9.176;2023-04-22T11:18:07;97477.34;;;28.76;22.26
550;BME280;20066;48.764;9.176;2023-04-22T11:20:35;97470.31;;;27.59;23.17
550;BME280;20066;48.764;9.176;2023-04-22T11:23:03;97473.06;;;28.75;22.51
550;BME280;20066;48.764;9.176;2023-04-22T11:25:33;97465.69;;;26.55;24.68
550;BME280;20066;48.764;9.176;2023-04-22T11:28:01;97472.50;;;27.96;22.94
550;BME280;20066;48.764;9.176;2023-04-22T11:30:31;97482.28;;;27.97;22.21
550;BME280;20066;48.764;9.176;2023-04-22T11:32:59;97469.34;;;27.81;21.58
550;BME280;20066;48.764;9.176;2023-04-22T11:35:29;97463.69;;;29.93;20.55
550;BME280;20066;48.764;9.176;2023-04-22T11:37:59;97454.31;;;28.25;20.86
550;BME280;20066;48.764;9.176;2023-04-22T11:40:29;97470.56;;;29.28;21.50
550;BME280;20066;48.764;9.176;2023-04-22T11:43:01;97464.25;;;28.77;20.10
550;BME280;20066;48.764;9.176;2023-04-22T11:45:33;97466.53;;;29.42;19.91
550;BME280;20066;48.764;9.176;2023-04-22T11:48:03;97466.13;;;29.06;20.53
550;BME280;20066;48.764;9.176;2023-04-22T11:50:33;97460.34;;;29.68;20.10
550;BME280;20066;48.764;9.176;2023-04-22T11:53:03;97453.59;;;27.10;21.81
550;BME280;20066;48.764;9.176;2023-04-22T11:55:32;97458.44;;;26.52;22.70
550;BME280;20066;48.764;9.176;2023-04-22T11:58:04;97454.84;;;27.75;22.17
550;BME280;20066;48.764;9.176;2023-04-22T12:00:35;97460.03;;;27.30;22.59
550;BME280;20066;48.764;9.176;2023-04-22T12:03:06;97448.88;;;27.05;23.35
550;BME280;20066;48.764;9.176;2023-04-22T12:05:36;97450.28;;;28.02;21.94
550;BME280;20066;48.764;9.176;2023-04-22T12:08:09;97464.22;;;26.49;23.68
550;BME280;20066;48.764;9.176;2023-04-22T12:10:41;97461.44;;;25.46;24.79
550;BME280;20066;48.764;9.176;2023-04-22T12:13:10;97454.63;;;25.97;24.55
550;BME280;20066;48.764;9.176;2023-04-22T12:15:45;97455.69;;;26.52;24.55
550;BME280;20066;48.764;9.176;2023-04-22T12:18:13;97449.72;;;27.60;24.11
550;BME280;20066;48.764;9.176;2023-04-22T12:20:41;97465.16;;;26.62;24.18
550;BME280;20066;48.764;9.176;2023-04-22T12:23:13;97458.66;;;26.65;24.21
550;BME280;20066;48.764;9.176;2023-04-22T12:25:41;97458.28;;;26.86;24.65
550;BME280;20066;48.764;9.176;2023-04-22T12:28:10;97450.56;;;26.15;24.83
550;BME280;20066;48.764;9.176;2023-04-22T12:30:38;97451.16;;;25.69;25.52
550;BME280;20066;48.764;9.176;2023-04-22T12:33:07;97441.56;;;26.09;25.40
550;BME280;20066;48.764;9.176;2023-04-22T12:35:36;97442.66;;;25.45;25.99
550;BME280;20066;48.764;9.176;2023-04-22T12:38:03;97458.19;;;25.64;26.49
550;BME280;20066;48.764;9.176;2023-04-22T12:40:31;97453.19;;;25.57;26.31
550;BME280;20066;48.764;9.176;2023-04-22T12:42:59;97461.41;;;25.85;25.46
550;BME280;20066;48.764;9.176;2023-04-22T12:45:31;97455.13;;;24.84;27.03
550;BME280;20066;48.764;9.176;2023-04-22T12:47:59;97461.66;;;25.37;26.11
550;BME280;20066;48.764;9.176;2023-04-22T12:50:28;97452.88;;;24.88;26.49
550;BME280;20066;48.764;9.176;2023-04-22T12:52:56;97451.91;;;25.30;25.82
550;BME280;20066;48.764;9.176;2023-04-22T12:55:23;97449.13;;;24.86;25.83
550;BME280;20066;48.764;9.176;2023-04-22T12:57:51;97447.19;;;25.59;25.11
550;BME280;20066;48.764;9.176;2023-04-22T13:00:19;97448.69;;;25.43;25.23
550;BME280;20066;48.764;9.176;2023-04-22T13:02:48;97453.06;;;26.19;24.64
550;BME280;20066;48.764;9.176;2023-04-22T13:05:17;97443.59;;;25.92;25.08
550;BME280;20066;48.764;9.176;2023-04-22T13:07:47;97452.16;;;25.72;24.56
550;BME280;20066;48.764;9.176;2023-04-22T13:10:31;97448.63;;;25.88;25.09
550;BME280;20066;48.764;9.176;2023-04-22T13:12:59;97452.63;;;25.87;24.99
550;BME280;20066;48.764;9.176;2023-04-22T13:15:43;97452.63;;;25.87;25.07
550;BME280;20066;48.764;9.176;2023-04-22T13:18:11;97447.91;;;25.26;25.35
550;BME280;20066;48.764;9.176;2023-04-22T13:20:39;97446.91;;;25.62;24.81
550;BME280;20066;48.764;9.176;2023-04-22T13:23:09;97443.41;;;25.23;25.29
550;BME280;20066;48.764;9.176;2023-04-22T13:25:38;97450.09;;;24.83;26.07
550;BME280;20066;48.764;9.176;2023-04-22T13:28:06;97445.41;;;25.33;25.70
550;BME280;20066;48.764;9.176;2023-04-22T13:30:35;97445.66;;;25.13;25.33
550;BME280;20066;48.764;9.176;2023-04-22T13:33:02;97443.13;;;24.87;25.88
550;BME280;20066;48.764;9.176;2023-04-22T13:35:30;97450.06;;;24.66;26.57
550;BME280;20066;48.764;9.176;2023-04-22T13:37:58;97441.56;;;24.70;25.89
550;BME280;20066;48.764;9.176;2023-04-22T13:40:28;97442.13;;;25.07;25.96
550;BME280;20066;48.764;9.176;2023-04-22T13:42:55;97441.16;;;25.10;26.40
550;BME280;20066;48.764;9.176;2023-04-22T13:45:23;97436.13;;;24.81;26.38
550;BME280;20066;48.764;9.176;2023-04-22T13:47:52;97441.16;;;25.05;26.13
550;BME280;20066;48.764;9.176;2023-04-22T13:50:21;97435.03;;;24.67;26.66
550;BME280;20066;48.764;9.176;2023-04-22T13:52:49;97440.88;;;24.80;26.79
550;BME280;20066;48.764;9.176;2023-04-22T13:55:17;97443.38;;;24.89;26.10